Time;durP1;ratioP1;P1;durP2;ratioP2;P2;SDS_P1;SDS_P2;PMS_P1;PMS_P2;Temp;Humidity;BMP_temperature;BMP_pressure;BME280_temperature;BME280_humidity;BME280_pressure;Samples;Min_cycle;Max_cycle;Signal;HPM_P1;HPM_P2
2024/01/24 00:01:34;;;;;;;3.10;0.80;;;;;;;17.41;52.91;101019.00;10408611;28;20316;-55
2024/01/24 00:06:37;;;;;;;2.63;0.93;;;;;;;17.43;53.69;101019.50;10408398;28;20821;-55
2024/01/24 00:11:37;;;;;;;2.10;0.50;;;;;;;17.41;53.46;101000.22;10436160;28;20048;-54
2024/01/24 00:16:39;;;;;;;3.47;0.93;;;;;;;17.43;53.50;100987.34;10449576;28;20116;-55
2024/01/24 00:21:40;;;;;;;3.70;0.80;;;;;;;17.44;53.42;101007.69;10448233;28;20353;-55
2024/01/24 00:26:40;;;;;;;3.80;1.27;;;;;;;17.43;52.90;100994.59;10449155;28;20025;-56
2024/01/24 00:31:41;;;;;;;2.10;1.00;;;;;;;17.44;53.75;100972.84;10456553;28;20696;-55
2024/01/24 00:36:41;;;;;;;1.88;0.90;;;;;;;17.41;53.30;100975.31;10406388;28;20288;-55
2024/01/24 00:41:42;;;;;;;4.05;0.82;;;;;;;17.46;52.77;100975.25;10408092;28;20049;-56
2024/01/24 00:46:42;;;;;;;1.83;1.10;;;;;;;17.42;53.63;100980.38;10406207;28;20105;-56
2024/01/24 00:51:42;;;;;;;2.88;1.52;;;;;;;17.44;53.80;100974.75;10407864;28;20025;-56
2024/01/24 00:56:42;;;;;;;0.77;0.60;;;;;;;17.44;53.77;100972.84;10414563;28;20480;-56
2024/01/24 01:01:43;;;;;;;1.57;0.57;;;;;;;17.42;53.51;100998.34;10414135;28;20326;-56
2024/01/24 01:06:43;;;;;;;1.63;0.53;;;;;;;17.46;52.42;100989.44;10414904;28;20287;-55
2024/01/24 01:11:43;;;;;;;1.08;0.50;;;;;;;17.44;53.28;100986.25;10427454;28;20767;-55
2024/01/24 01:16:44;;;;;;;0.83;0.43;;;;;;;17.43;53.09;100998.06;10414678;28;20045;-55
2024/01/24 01:21:44;;;;;;;1.37;0.80;;;;;;;17.47;53.91;100993.72;10414832;28;20349;-55
2024/01/24 01:26:44;;;;;;;2.15;0.60;;;;;;;17.45;53.45;100990.53;10414180;28;20744;-55
2024/01/24 01:31:45;;;;;;;1.27;0.80;;;;;;;17.46;53.50;100986.78;10440959;28;20473;-55
2024/01/24 01:36:45;;;;;;;3.03;0.60;;;;;;;17.47;52.58;100991.03;10413794;28;20284;-56
2024/01/24 01:41:46;;;;;;;1.33;0.50;;;;;;;17.45;52.91;100987.06;10414115;28;20299;-56
2024/01/24 01:46:47;;;;;;;2.60;1.55;;;;;;;17.46;53.53;100977.94;10413573;28;20280;-55
2024/01/24 01:51:49;;;;;;;1.27;0.47;;;;;;;17.49;54.36;100994.25;10413779;28;20104;-56
2024/01/24 01:56:50;;;;;;;2.75;0.93;;;;;;;17.46;53.48;101004.75;10413480;28;20029;-56
2024/01/24 02:01:52;;;;;;;2.10;0.50;;;;;;;17.47;52.92;100992.94;10413160;28;20026;-55
2024/01/24 02:06:53;;;;;;;0.80;0.50;;;;;;;17.47;53.65;100964.25;10411974;28;20364;-56
2024/01/24 02:11:53;;;;;;;2.33;0.52;;;;;;;17.47;52.82;100969.59;10424103;28;20460;-56
2024/01/24 02:16:53;;;;;;;0.50;0.30;;;;;;;17.43;52.80;100955.16;10412710;28;20032;-55
2024/01/24 02:21:53;;;;;;;0.80;0.50;;;;;;;17.45;54.45;100955.69;10412436;28;20462;-55
2024/01/24 02:26:54;;;;;;;1.23;0.43;;;;;;;17.44;54.39;100956.78;10411955;28;20276;-56
2024/01/24 02:31:55;;;;;;;1.53;0.40;;;;;;;17.42;53.55;100947.41;10437051;28;20025;-56
2024/01/24 02:36:56;;;;;;;1.67;0.30;;;;;;;17.46;53.73;100956.47;10411633;28;20759;-56
2024/01/24 02:41:56;;;;;;;0.83;0.30;;;;;;;17.44;54.44;100961.34;10411560;28;20029;-56
2024/01/24 02:46:56;;;;;;;2.60;0.60;;;;;;;17.40;53.80;100985.19;10411050;28;20282;-56
2024/01/24 02:52:01;;;;;;;2.27;0.80;;;;;;;17.45;53.69;100974.44;10411502;28;20021;-55
2024/01/24 02:57:01;;;;;;;1.13;0.40;;;;;;;17.45;54.08;100946.84;10410824;28;20326;-56
2024/01/24 03:02:02;;;;;;;1.47;0.73;;;;;;;17.42;53.74;100969.66;10410653;28;20026;-56
2024/01/24 03:07:02;;;;;;;2.08;0.40;;;;;;;17.46;53.55;100989.44;10411470;28;20280;-56
2024/01/24 03:12:03;;;;;;;0.60;0.30;;;;;;;17.45;54.50;100970.97;10420545;28;20046;-55
2024/01/24 03:17:03;;;;;;;0.60;0.45;;;;;;;17.48;52.86;101010.63;10409253;28;20021;-56
2024/01/24 03:22:04;;;;;;;0.90;0.40;;;;;;;17.49;54.24;101014.88;10410057;28;20413;-56
2024/01/24 03:27:04;;;;;;;1.00;0.40;;;;;;;17.45;53.55;101020.03;10409713;28;20025;-55
2024/01/24 03:32:05;;;;;;;0.80;0.40;;;;;;;17.48;53.13;101040.09;10437697;28;20515;-55
2024/01/24 03:37:05;;;;;;;1.10;0.45;;;;;;;17.49;54.12;101039.03;10408198;28;20075;-56
2024/01/24 03:42:06;;;;;;;1.27;0.30;;;;;;;17.47;54.39;101035.81;10409416;28;20072;-56
2024/01/24 03:47:06;;;;;;;1.65;0.30;;;;;;;17.46;53.15;101053.00;10408869;28;20432;-56
2024/01/24 03:52:06;;;;;;;0.63;0.40;;;;;;;17.46;52.89;101034.22;10409345;28;20055;-56
2024/01/24 03:57:07;;;;;;;1.17;0.57;;;;;;;17.49;54.26;101047.06;10407249;28;20036;-54
2024/01/24 04:02:07;;;;;;;2.47;0.50;;;;;;;17.45;53.25;101046.84;10408810;28;20624;-56
2024/01/24 04:07:07;;;;;;;1.10;0.60;;;;;;;17.41;53.90;101028.91;10411373;28;20286;-56
2024/01/24 04:12:08;;;;;;;0.93;0.57;;;;;;;17.61;57.50;101031.41;10417608;28;20292;-56
2024/01/24 04:17:08;;;;;;;2.67;0.73;;;;;;;17.62;55.16;101043.75;10414046;28;20738;-56
2024/01/24 04:22:08;;;;;;;1.88;0.50;;;;;;;17.59;55.79;101036.25;10410758;28;20029;-55
2024/01/24 04:27:09;;;;;;;1.30;0.70;;;;;;;17.58;55.59;101041.91;10422230;28;20040;-55
2024/01/24 04:32:09;;;;;;;4.47;1.17;;;;;;;17.62;54.72;101029.53;10431391;28;20018;-55
2024/01/24 04:37:09;;;;;;;1.63;0.60;;;;;;;17.63;54.91;101039.97;10433912;28;20894;-55
2024/01/24 04:42:10;;;;;;;4.67;0.63;;;;;;;17.64;55.00;101071.09;10428842;28;20032;-54
2024/01/24 04:47:13;;;;;;;3.15;0.60;;;;;;;17.61;55.72;101068.94;10427929;28;20272;-55
2024/01/24 04:52:16;;;;;;;3.08;0.77;;;;;;;17.62;55.24;101096.56;10423329;28;20405;-55
2024/01/24 04:57:17;;;;;;;3.42;0.95;;;;;;;17.70;56.19;101112.91;10418365;28;20099;-56
2024/01/24 05:02:19;;;;;;;2.05;0.70;;;;;;;17.68;55.84;101146.41;10453702;28;20455;-56
2024/01/24 05:07:20;;;;;;;2.90;0.73;;;;;;;17.59;56.53;101138.16;10435616;28;20032;-55
2024/01/24 05:12:20;;;;;;;2.43;1.00;;;;;;;17.55;55.71;101147.84;10419853;28;20037;-56
2024/01/24 05:17:20;;;;;;;3.20;0.97;;;;;;;17.49;55.57;101139.00;10411929;28;20337;-56
2024/01/24 05:22:21;;;;;;;2.53;1.13;;;;;;;17.44;55.63;101154.34;10412037;28;20300;-56
2024/01/24 05:27:22;;;;;;;2.95;0.60;;;;;;;17.41;56.65;101153.03;10411464;28;20307;-55
2024/01/24 05:32:22;;;;;;;3.15;0.95;;;;;;;17.38;56.48;101148.19;10435040;28;20017;-56
2024/01/24 05:37:23;;;;;;;2.60;0.90;;;;;;;17.38;56.01;101172.31;10416277;28;20033;-55
2024/01/24 05:42:23;;;;;;;2.50;0.80;;;;;;;17.38;54.89;101164.28;10423799;28;20025;-56
2024/01/24 05:47:23;;;;;;;3.87;0.87;;;;;;;17.36;55.96;101184.41;10410549;28;20280;-56
2024/01/24 05:52:24;;;;;;;4.80;1.10;;;;;;;17.33;55.76;101193.78;10410922;28;20363;-56
2024/01/24 05:57:24;;;;;;;3.53;1.17;;;;;;;17.33;54.59;101209.88;10408825;28;20791;-54
2024/01/24 06:02:24;;;;;;;2.60;1.03;;;;;;;17.32;54.96;101221.69;10410748;28;20472;-56
2024/01/24 06:07:25;;;;;;;5.23;1.77;;;;;;;17.30;55.03;101253.31;10415268;28;20336;-56
2024/01/24 06:12:25;;;;;;;6.03;1.20;;;;;;;17.36;56.30;101254.09;10416751;28;20726;-55
2024/01/24 06:17:25;;;;;;;9.90;2.33;;;;;;;17.48;56.75;101276.81;10412053;28;20359;-55
2024/01/24 06:22:26;;;;;;;8.75;2.00;;;;;;;17.50;55.42;101273.88;10409827;28;20280;-54
2024/01/24 06:27:26;;;;;;;6.13;2.10;;;;;;;17.47;56.04;101306.59;10409319;28;20029;-55
2024/01/24 06:32:26;;;;;;;10.90;2.07;;;;;;;17.45;55.97;101312.22;10446789;28;20026;-53
2024/01/24 06:37:27;;;;;;;9.90;2.50;;;;;;;17.43;55.72;101313.59;10408670;28;20276;-54
2024/01/24 06:42:27;;;;;;;14.53;2.90;;;;;;;17.43;56.21;101309.03;10409534;28;20288;-55
2024/01/24 06:47:27;;;;;;;16.83;3.03;;;;;;;17.50;56.45;101330.16;10408510;28;20763;-54
2024/01/24 06:52:28;;;;;;;15.13;4.07;;;;;;;17.49;55.13;101350.00;10410031;28;20271;-54
2024/01/24 06:57:29;;;;;;;14.82;3.35;;;;;;;17.42;55.17;101355.69;10415336;28;20048;-53
2024/01/24 07:02:29;;;;;;;17.63;4.13;;;;;;;17.42;56.54;101368.28;10407953;28;20033;-53
2024/01/24 07:07:29;;;;;;;20.83;3.80;;;;;;;17.43;54.73;101368.00;10413515;28;20286;-57
2024/01/24 07:12:30;;;;;;;17.90;4.10;;;;;;;17.33;55.46;101357.31;10412591;28;20296;-56
2024/01/24 07:17:30;;;;;;;23.30;4.95;;;;;;;17.37;54.91;101379.81;10412366;28;20575;-52
2024/01/24 07:22:30;;;;;;;12.30;4.60;;;;;;;17.39;54.80;101384.88;10443535;28;20033;-53
2024/01/24 07:27:31;;;;;;;19.23;4.47;;;;;;;17.37;55.87;101390.53;10447618;28;20769;-54
2024/01/24 07:32:31;;;;;;;22.40;6.03;;;;;;;17.35;55.24;101381.16;10451136;28;20276;-53
2024/01/24 07:37:31;;;;;;;12.85;3.67;;;;;;;17.32;55.29;101422.72;10408776;28;20954;-54
2024/01/24 07:42:32;;;;;;;14.93;4.17;;;;;;;17.28;54.45;101424.31;10408528;28;20029;-54
2024/01/24 07:47:32;;;;;;;13.50;3.10;;;;;;;17.24;53.84;101424.03;10407217;28;20280;-54
2024/01/24 07:52:32;;;;;;;13.07;3.20;;;;;;;17.23;54.21;101443.06;10407953;28;20025;-54
2024/01/24 07:57:33;;;;;;;7.93;3.25;;;;;;;17.24;54.35;101477.66;10407971;28;20272;-53
2024/01/24 08:02:33;;;;;;;14.13;3.97;;;;;;;17.17;54.36;101458.38;10415760;28;20032;-53
2024/01/24 08:07:33;;;;;;;13.45;3.75;;;;;;;17.22;54.11;101473.63;10427990;28;20781;-52
2024/01/24 08:12:34;;;;;;;11.97;3.93;;;;;;;17.25;54.34;101475.78;10411378;28;20092;-53
2024/01/24 08:17:36;;;;;;;19.23;5.38;;;;;;;17.29;53.60;101454.63;10438451;28;20734;-54
2024/01/24 08:22:37;;;;;;;11.32;3.55;;;;;;;17.30;54.06;101462.38;10423819;28;20060;-53
2024/01/24 08:27:37;;;;;;;11.43;4.38;;;;;;;17.31;54.30;101490.00;10421882;28;20613;-54
2024/01/24 08:32:40;;;;;;;15.75;4.22;;;;;;;17.31;53.40;101480.06;10424123;28;20036;-54
2024/01/24 08:37:41;;;;;;;19.33;4.85;;;;;;;17.30;54.16;101502.59;10416268;28;20120;-55
2024/01/24 08:42:43;;;;;;;9.35;3.90;;;;;;;17.31;55.36;101539.03;10426093;28;20033;-53
2024/01/24 08:47:43;;;;;;;19.17;4.35;;;;;;;17.32;55.99;101523.75;10407829;28;20128;-52
2024/01/24 08:52:44;;;;;;;20.75;5.32;;;;;;;17.30;55.06;101517.88;10398534;28;20075;-54
2024/01/24 08:57:44;;;;;;;12.57;4.37;;;;;;;17.27;53.63;101507.66;10421341;28;20033;-53
2024/01/24 09:02:44;;;;;;;10.23;2.92;;;;;;;17.29;53.87;101519.75;10427472;28;20295;-54
2024/01/24 09:07:45;;;;;;;13.38;4.03;;;;;;;17.28;53.84;101566.34;10442850;28;20021;-53
2024/01/24 09:12:45;;;;;;;10.98;3.90;;;;;;;17.25;54.64;101612.47;10443532;28;20083;-56
2024/01/24 09:17:45;;;;;;;8.43;3.35;;;;;;;17.23;54.09;101579.75;10455294;28;20020;-55
2024/01/24 09:22:46;;;;;;;14.00;3.55;;;;;;;17.23;54.48;101582.44;10455671;28;20036;-53
2024/01/24 09:27:46;;;;;;;12.38;3.50;;;;;;;17.17;54.98;101597.72;10441336;28;20029;-54
2024/01/24 09:32:47;;;;;;;12.45;3.45;;;;;;;17.15;54.53;101601.72;10466283;28;20043;-54
2024/01/24 09:37:48;;;;;;;12.07;3.97;;;;;;;17.14;54.95;101646.47;10455143;28;20699;-54
2024/01/24 09:42:48;;;;;;;9.93;3.87;;;;;;;17.10;55.09;101672.19;10448759;28;20303;-53
2024/01/24 09:47:49;;;;;;;10.13;3.33;;;;;;;17.07;55.33;101645.91;10454956;28;20291;-53
2024/01/24 09:52:53;;;;;;;11.88;4.30;;;;;;;17.08;54.59;101647.53;10452893;28;20060;-54
2024/01/24 09:57:53;;;;;;;14.95;4.47;;;;;;;17.11;54.59;101664.94;10453331;28;20079;-54
2024/01/24 10:02:54;;;;;;;13.10;4.30;;;;;;;17.12;55.25;101659.31;10439690;28;20059;-54
2024/01/24 10:07:54;;;;;;;10.70;3.05;;;;;;;17.14;54.81;101665.22;10452785;28;20317;-54
2024/01/24 10:12:55;;;;;;;9.10;4.28;;;;;;;17.15;53.69;101684.78;10451219;28;20047;-54
2024/01/24 10:17:56;;;;;;;8.10;3.30;;;;;;;17.17;55.37;101688.03;10453304;28;20043;-53
2024/01/24 10:22:56;;;;;;;11.27;4.55;;;;;;;17.16;55.62;101700.59;10453070;28;20036;-54
2024/01/24 10:27:56;;;;;;;11.00;3.10;;;;;;;17.20;55.35;101725.81;10453085;28;20013;-54
2024/01/24 10:32:57;;;;;;;14.73;4.53;;;;;;;17.16;55.30;101705.16;10461198;28;20267;-54
2024/01/24 10:37:58;;;;;;;11.00;3.13;;;;;;;17.19;54.94;101728.78;10451531;28;20279;-54
2024/01/24 10:43:04;;;;;;;19.17;4.17;;;;;;;17.14;55.36;101737.56;10451676;28;20372;-55
2024/01/24 10:48:05;;;;;;;17.83;4.45;;;;;;;17.15;55.76;101746.41;10423841;28;20291;-53
2024/01/24 10:53:06;;;;;;;14.95;4.47;;;;;;;17.15;54.13;101749.09;10410993;28;20116;-54
2024/01/24 10:58:09;;;;;;;13.10;5.28;;;;;;;17.19;54.76;101785.06;10410736;28;20033;-53
2024/01/24 11:03:09;;;;;;;12.90;4.60;;;;;;;17.19;54.05;101758.25;10435113;28;20037;-54
2024/01/24 11:08:31;;;;;;;18.52;4.47;;;;;;;17.19;53.35;101790.41;10450931;28;20025;-54
2024/01/24 11:13:34;;;;;;;17.42;4.30;;;;;;;17.24;53.65;101785.88;10441675;28;20169;-54
2024/01/24 11:18:35;;;;;;;31.48;8.15;;;;;;;17.23;52.45;101767.38;10423479;28;20030;-54
2024/01/24 11:23:38;;;;;;;27.23;7.03;;;;;;;17.30;53.04;101780.56;10423074;28;20048;-53
2024/01/24 11:28:39;;;;;;;21.90;5.60;;;;;;;17.31;51.80;101807.09;10410261;28;20876;-53
2024/01/24 11:34:05;;;;;;;20.83;5.03;;;;;;;17.29;53.11;101824.50;10434252;28;20087;-54
2024/01/24 11:39:31;;;;;;;22.80;6.10;;;;;;;17.27;53.46;101810.53;10409074;28;20283;-53
2024/01/24 11:44:31;;;;;;;17.35;5.60;;;;;;;17.17;52.45;101822.84;10422718;28;20477;-53
2024/01/24 11:49:32;;;;;;;17.43;5.50;;;;;;;17.14;51.94;101836.72;10409437;28;20029;-52
2024/01/24 11:54:32;;;;;;;17.50;5.63;;;;;;;17.13;51.95;101864.59;10409078;28;20279;-54
2024/01/24 11:59:32;;;;;;;13.87;4.70;;;;;;;17.12;51.77;101852.25;10409113;28;20283;-56
2024/01/24 12:04:33;;;;;;;14.20;5.90;;;;;;;17.21;53.74;101880.22;10412800;28;20754;-57
2024/01/24 12:09:33;;;;;;;23.08;6.53;;;;;;;17.22;54.35;101887.19;10424610;28;20290;-56
2024/01/24 12:14:33;;;;;;;19.67;6.90;;;;;;;17.21;55.02;101901.66;10408227;28;20050;-55
2024/01/24 12:19:35;;;;;;;19.85;5.35;;;;;;;17.15;53.57;101909.91;10407215;28;20287;-56
2024/01/24 12:24:42;;;;;;;20.02;5.30;;;;;;;17.15;54.56;101915.25;10416508;28;20057;-55
2024/01/24 12:29:42;;;;;;;22.55;7.25;;;;;;;17.08;53.34;101912.00;10418739;28;20021;-56
2024/01/24 12:34:47;;;;;;;15.00;4.80;;;;;;;17.07;53.61;101943.34;10430658;28;20025;-55
2024/01/24 12:39:51;;;;;;;19.52;5.65;;;;;;;17.03;54.41;101923.47;10408033;28;20294;-55
2024/01/24 12:44:53;;;;;;;14.15;4.78;;;;;;;17.02;54.34;101937.13;10407863;28;20017;-55
2024/01/24 12:49:54;;;;;;;17.58;6.35;;;;;;;16.99;54.12;101930.41;10412425;28;20025;-56
2024/01/24 12:54:54;;;;;;;14.38;4.60;;;;;;;17.00;53.89;101949.97;10415792;28;20021;-56
2024/01/24 12:59:56;;;;;;;14.80;4.70;;;;;;;17.02;54.02;101937.94;10414328;28;20021;-55
2024/01/24 13:04:56;;;;;;;16.42;4.75;;;;;;;17.02;54.59;101958.56;10415431;28;20300;-55
2024/01/24 13:09:57;;;;;;;14.45;4.88;;;;;;;17.03;53.50;101974.38;10427504;28;20104;-55
2024/01/24 13:14:57;;;;;;;10.90;4.00;;;;;;;17.02;54.35;101975.44;10413697;28;20026;-55
2024/01/24 13:19:58;;;;;;;14.75;5.85;;;;;;;17.09;53.35;101985.97;10415051;28;20032;-55
2024/01/24 13:24:58;;;;;;;15.32;4.47;;;;;;;17.10;52.64;102003.66;10414763;28;20033;-56
2024/01/24 13:29:59;;;;;;;21.58;4.93;;;;;;;17.23;53.69;102016.66;10421304;28;20028;-54
2024/01/24 13:34:59;;;;;;;16.13;5.03;;;;;;;17.24;54.09;102019.06;10432765;28;20052;-54
2024/01/24 13:39:59;;;;;;;22.67;5.70;;;;;;;17.31;53.74;102021.56;10414148;28;20815;-53
2024/01/24 13:45:00;;;;;;;16.85;4.93;;;;;;;17.31;54.65;102016.19;10414153;28;20158;-52
2024/01/24 13:50:00;;;;;;;19.08;5.80;;;;;;;17.33;54.04;102021.28;10412589;28;20025;-54
2024/01/24 13:55:01;;;;;;;19.90;5.30;;;;;;;17.33;53.86;102040.88;10413234;28;20504;-55
2024/01/24 14:00:02;;;;;;;13.32;4.07;;;;;;;17.36;55.69;102044.91;10412918;28;20331;-55
2024/01/24 14:05:03;;;;;;;26.38;6.35;;;;;;;17.36;54.72;102051.06;10413104;28;20029;-56
2024/01/24 14:10:04;;;;;;;17.40;5.97;;;;;;;17.29;55.63;102061.22;10427835;28;20094;-55
2024/01/24 14:15:05;;;;;;;17.70;4.55;;;;;;;17.21;55.27;102085.78;10417797;28;20029;-55
2024/01/24 14:20:06;;;;;;;18.05;5.63;;;;;;;17.11;54.09;102112.47;10412767;28;20030;-54
2024/01/24 14:25:08;;;;;;;17.20;4.53;;;;;;;17.09;54.68;102109.25;10433181;28;20025;-58
2024/01/24 14:30:09;;;;;;;24.33;5.10;;;;;;;17.12;53.62;102117.59;10443239;28;20017;-55
2024/01/24 14:35:13;;;;;;;10.60;4.32;;;;;;;17.14;53.14;102122.69;10425230;28;20036;-55
2024/01/24 14:40:14;;;;;;;13.63;3.83;;;;;;;17.14;54.44;102128.84;10409599;28;20025;-55
2024/01/24 14:45:15;;;;;;;12.43;5.25;;;;;;;17.12;54.45;102132.84;10410520;28;20030;-55
2024/01/24 14:50:15;;;;;;;14.35;4.05;;;;;;;17.12;54.49;102139.03;10410513;28;20029;-54
2024/01/24 14:55:16;;;;;;;11.63;4.45;;;;;;;17.12;53.40;102151.63;10410209;28;20080;-55
2024/01/24 15:00:19;;;;;;;13.55;4.22;;;;;;;17.12;52.94;102152.41;10410360;28;20022;-56
2024/01/24 15:05:19;;;;;;;10.55;3.60;;;;;;;17.10;53.18;102159.91;10409457;28;20025;-55
2024/01/24 15:10:22;;;;;;;14.23;4.22;;;;;;;17.14;54.12;102169.06;10421756;28;20049;-54
2024/01/24 15:15:22;;;;;;;13.85;4.68;;;;;;;17.16;52.48;102176.84;10408891;28;20029;-54
2024/01/24 15:20:22;;;;;;;10.68;3.22;;;;;;;17.17;53.07;102171.25;10409899;28;20634;-54
2024/01/24 15:25:23;;;;;;;7.40;3.70;;;;;;;17.15;52.77;102188.63;10408754;28;20029;-54
2024/01/24 15:30:23;;;;;;;10.77;3.45;;;;;;;17.16;52.97;102192.94;10422712;28;20270;-55
2024/01/24 15:35:23;;;;;;;13.23;3.10;;;;;;;17.21;53.32;102209.09;10419409;28;20025;-55
2024/01/24 15:40:23;;;;;;;11.40;4.27;;;;;;;17.20;53.71;102212.84;10409834;28;20427;-56
2024/01/24 15:45:26;;;;;;;6.93;2.80;;;;;;;17.24;52.46;102219.31;10408912;28;20287;-54
2024/01/24 15:50:26;;;;;;;14.00;2.70;;;;;;;17.25;52.60;102245.84;10413738;28;20240;-54
2024/01/24 15:55:27;;;;;;;8.90;4.33;;;;;;;17.24;53.29;102238.88;10421342;28;20025;-55
2024/01/24 16:00:27;;;;;;;13.93;4.30;;;;;;;17.35;53.84;102247.06;10436020;28;20365;-56
2024/01/24 16:05:44;;;;;;;14.85;4.55;;;;;;;17.37;53.59;102255.66;10448860;28;20328;-56
2024/01/24 16:10:44;;;;;;;13.05;4.10;;;;;;;17.40;54.18;102252.47;10419922;28;20041;-58
2024/01/24 16:15:45;;;;;;;16.97;4.00;;;;;;;17.46;53.31;102263.00;10408611;28;20049;-57
2024/01/24 16:20:45;;;;;;;16.45;5.63;;;;;;;17.39;53.75;102262.38;10411301;28;20368;-55
2024/01/24 16:25:45;;;;;;;19.50;3.95;;;;;;;17.38;53.57;102257.25;10426828;28;20037;-56
2024/01/24 16:30:46;;;;;;;22.17;6.50;;;;;;;17.29;55.69;102264.16;10441361;28;20024;-54
2024/01/24 16:35:47;;;;;;;22.20;5.32;;;;;;;17.23;54.23;102276.66;10428093;28;20033;-56
2024/01/24 16:40:47;;;;;;;17.98;4.43;;;;;;;17.25;54.16;102291.44;10444514;28;20044;-54
2024/01/24 16:45:49;;;;;;;16.58;4.68;;;;;;;17.29;54.50;102293.63;10459966;28;20036;-53
2024/01/24 16:50:49;;;;;;;25.50;9.60;;;;;;;17.44;58.82;102294.63;10448244;28;20031;-54
2024/01/24 16:55:50;;;;;;;42.43;22.23;;;;;;;17.43;55.07;102294.88;10459199;28;20048;-54
2024/01/24 17:00:50;;;;;;;32.65;13.38;;;;;;;17.71;57.41;102301.94;10459468;28;20283;-52
2024/01/24 17:05:51;;;;;;;32.07;12.33;;;;;;;17.78;55.14;102307.94;10458473;28;20029;-54
2024/01/24 17:10:52;;;;;;;25.63;11.35;;;;;;;17.82;55.46;102319.78;10437570;28;20290;-54
2024/01/24 17:15:52;;;;;;;24.23;11.25;;;;;;;17.76;54.96;102320.81;10456329;28;20503;-53
2024/01/24 17:20:53;;;;;;;23.87;11.50;;;;;;;17.79;55.36;102325.66;10448216;28;20036;-55
2024/01/24 17:25:54;;;;;;;28.48;10.85;;;;;;;17.76;55.22;102335.03;10417964;28;20275;-52
2024/01/24 17:30:55;;;;;;;23.23;9.93;;;;;;;17.78;54.95;102335.59;10440095;28;20158;-54
2024/01/24 17:35:56;;;;;;;18.67;8.75;;;;;;;17.74;54.17;102341.69;10414647;28;20287;-53
2024/01/24 17:40:56;;;;;;;23.45;8.43;;;;;;;17.61;54.57;102356.25;10411015;28;20036;-54
2024/01/24 17:45:56;;;;;;;18.10;8.50;;;;;;;17.55;54.59;102351.91;10412114;28;20029;-54
2024/01/24 17:50:57;;;;;;;18.70;8.37;;;;;;;17.52;55.74;102363.94;10435484;28;20302;-55
2024/01/24 17:55:57;;;;;;;18.40;7.35;;;;;;;17.46;55.57;102364.09;10444683;28;20283;-55
2024/01/24 18:00:58;;;;;;;21.17;8.35;;;;;;;17.40;56.16;102375.81;10454111;28;20472;-55
2024/01/24 18:05:59;;;;;;;12.07;7.05;;;;;;;17.34;55.86;102372.25;10429080;28;20033;-55
2024/01/24 18:10:59;;;;;;;16.00;7.70;;;;;;;17.31;55.49;102369.25;10435440;28;20076;-56
2024/01/24 18:15:59;;;;;;;17.00;6.57;;;;;;;17.29;55.77;102374.88;10423860;28;20286;-55
2024/01/24 18:21:00;;;;;;;13.30;6.70;;;;;;;17.25;55.48;102365.69;10431194;28;20305;-56
2024/01/24 18:26:00;;;;;;;14.73;6.43;;;;;;;17.26;55.09;102359.25;10425852;28;20052;-56
2024/01/24 18:31:00;;;;;;;12.13;5.83;;;;;;;17.26;55.06;102367.31;10437273;28;20372;-55
2024/01/24 18:36:03;;;;;;;12.98;6.13;;;;;;;17.25;54.50;102360.31;10413204;28;20340;-56
2024/01/24 18:41:03;;;;;;;14.27;5.70;;;;;;;17.22;55.25;102361.63;10416052;28;20029;-56
2024/01/24 18:46:03;;;;;;;10.52;6.13;;;;;;;17.22;54.25;102350.09;10419439;28;20017;-55
2024/01/24 18:51:04;;;;;;;11.43;6.57;;;;;;;17.27;54.71;102346.66;10410018;28;20025;-55
2024/01/24 18:56:05;;;;;;;15.73;6.65;;;;;;;17.24;55.40;102345.28;10409934;28;20345;-56
2024/01/24 19:01:05;;;;;;;17.65;6.55;;;;;;;17.27;55.55;102344.78;10416108;28;20032;-55
2024/01/24 19:06:07;;;;;;;13.48;5.40;;;;;;;17.32;55.03;102355.59;10416060;28;20032;-54
2024/01/24 19:11:08;;;;;;;12.35;5.22;;;;;;;17.36;54.45;102347.88;10412250;28;20046;-54
2024/01/24 19:16:08;;;;;;;12.13;6.15;;;;;;;17.39;53.55;102353.53;10409079;28;20361;-56
2024/01/24 19:21:08;;;;;;;8.52;4.75;;;;;;;17.37;54.86;102352.16;10433659;28;20032;-55
2024/01/24 19:26:09;;;;;;;8.97;5.00;;;;;;;17.34;54.75;102345.44;10410115;28;20029;-55
2024/01/24 19:31:09;;;;;;;11.45;5.00;;;;;;;17.33;53.62;102361.78;10430415;28;20267;-56
2024/01/24 19:36:09;;;;;;;11.70;5.27;;;;;;;17.35;54.84;102373.06;10414695;28;20028;-55
2024/01/24 19:41:10;;;;;;;12.27;5.00;;;;;;;17.34;53.98;102382.16;10430480;28;20774;-55
2024/01/24 19:46:12;;;;;;;13.20;4.30;;;;;;;17.32;54.54;102381.59;10406289;28;20102;-53
2024/01/24 19:51:12;;;;;;;8.27;4.15;;;;;;;17.29;55.54;102393.63;10413473;28;20283;-53
2024/01/24 19:56:13;;;;;;;17.77;6.33;;;;;;;17.21;56.80;102397.53;10406496;28;20389;-53
2024/01/24 20:01:13;;;;;;;12.10;3.73;;;;;;;17.20;54.96;102387.88;10422284;28;20288;-54
2024/01/24 20:06:14;;;;;;;12.15;4.38;;;;;;;17.21;55.39;102397.53;10418868;28;20274;-53
2024/01/24 20:11:15;;;;;;;14.27;4.28;;;;;;;17.16;55.00;102392.06;10418253;28;20041;-52
2024/01/24 20:16:16;;;;;;;13.88;6.18;;;;;;;17.13;55.82;102394.44;10425319;28;20025;-52
2024/01/24 20:21:16;;;;;;;11.23;4.40;;;;;;;17.11;56.05;102409.97;10432343;28;20021;-53
2024/01/24 20:26:18;;;;;;;10.70;4.25;;;;;;;17.11;56.61;102409.97;10440427;28;20492;-53
2024/01/24 20:31:18;;;;;;;15.60;4.50;;;;;;;17.09;57.18;102406.72;10445510;28;20025;-54
2024/01/24 20:36:20;;;;;;;9.87;3.90;;;;;;;17.09;56.16;102414.75;10421845;28;20383;-53
2024/01/24 20:41:21;;;;;;;9.30;3.92;;;;;;;17.10;56.23;102421.75;10425166;28;20318;-54
2024/01/24 20:46:21;;;;;;;11.48;4.47;;;;;;;17.07;55.79;102431.09;10415527;28;20061;-54
2024/01/24 20:51:21;;;;;;;7.30;4.40;;;;;;;17.12;55.18;102411.59;10443093;28;20040;-53
2024/01/24 20:56:22;;;;;;;8.67;3.53;;;;;;;17.13;56.20;102426.59;10447306;28;20044;-53
2024/01/24 21:01:22;;;;;;;9.50;3.67;;;;;;;17.13;55.45;102422.06;10422935;28;20304;-55
2024/01/24 21:06:27;;;;;;;8.43;3.27;;;;;;;17.18;54.64;102421.34;10422924;28;20660;-54
2024/01/24 21:11:27;;;;;;;9.10;3.70;;;;;;;17.19;55.22;102417.59;10428870;28;20352;-55
2024/01/24 21:16:28;;;;;;;10.23;4.25;;;;;;;17.24;54.20;102420.34;10430381;28;20025;-54
2024/01/24 21:21:29;;;;;;;12.63;3.77;;;;;;;17.24;53.95;102418.47;10430242;28;20033;-54
2024/01/24 21:26:29;;;;;;;8.70;3.50;;;;;;;17.25;54.67;102416.63;10428777;28;20628;-54
2024/01/24 21:31:29;;;;;;;7.80;3.73;;;;;;;17.29;54.71;102416.97;10444843;28;20025;-54
2024/01/24 21:36:30;;;;;;;9.17;3.90;;;;;;;17.30;54.19;102414.03;10414654;28;20279;-54
2024/01/24 21:41:30;;;;;;;10.33;3.07;;;;;;;17.35;54.62;102427.50;10414307;28;20292;-53
2024/01/24 21:46:30;;;;;;;7.77;3.07;;;;;;;17.34;53.75;102417.84;10414682;28;20631;-54
2024/01/24 21:51:31;;;;;;;8.87;3.20;;;;;;;17.35;53.93;102421.31;10413897;28;20284;-55
2024/01/24 21:56:31;;;;;;;9.73;4.37;;;;;;;17.33;54.90;102423.44;10413900;28;20283;-54
2024/01/24 22:01:36;;;;;;;8.13;3.50;;;;;;;17.34;52.97;102425.88;10413642;28;20300;-55
2024/01/24 22:06:36;;;;;;;8.23;3.33;;;;;;;17.34;54.16;102427.75;10413812;28;20072;-55
2024/01/24 22:11:37;;;;;;;11.50;3.53;;;;;;;17.37;53.82;102430.75;10453260;28;20463;-55
2024/01/24 22:16:38;;;;;;;6.65;3.08;;;;;;;17.40;53.14;102437.47;10454608;28;20291;-55
2024/01/24 22:21:42;;;;;;;7.97;3.00;;;;;;;17.39;53.84;102447.38;10453366;28;20021;-55
2024/01/24 22:26:43;;;;;;;7.45;4.05;;;;;;;17.41;54.11;102449.84;10454246;28;20029;-55
2024/01/24 22:31:44;;;;;;;5.40;2.88;;;;;;;17.41;54.27;102444.50;10461634;28;20037;-54
2024/01/24 22:36:44;;;;;;;10.68;3.45;;;;;;;17.39;53.24;102444.72;10413015;28;20036;-55
2024/01/24 22:41:44;;;;;;;7.97;3.23;;;;;;;17.39;53.33;102450.06;10412119;28;20033;-54
2024/01/24 22:46:45;;;;;;;8.83;3.70;;;;;;;17.38;52.94;102442.28;10412517;28;20970;-54
2024/01/24 22:51:45;;;;;;;12.37;3.93;;;;;;;17.38;53.63;102453.81;10411737;28;20304;-54